Latest Weather Observations for Lismore Airport

IDN60801

Issued at 10:35 pm EDT Tuesday 21 October 2014 (issued every 30 minutes, with the page automatically refreshed every 10 minutes)

About weather observations | Map of weather stations | Latest weather observations for NSW | Other Formats
Station Details ID: 058214 Name: LISMORE AIRPORT AWS Lat: -28.83 Lon: 153.26 Height: 9.21 m
Data from the previous 72 hours. | See also: Recent months for locations in New South Wales
Date/Time
EDT
Temp
°C
App
Temp
°C
Dew
Point
Rel
Hum
%
Delta-T
°C
Wind Press
QNH
hPa
Press
MSL
hPa
Rain
since 9 am
mm
Dir
 
Spd
km/h
Gust
km/h
Spd
kts
Gust
kts
21/10:30pm 15.1 14.4 12.1 82 1.6 S 7 9 4 5 1028.8 1028.8 0.0
21/10:00pm 14.8 13.9 11.4 80 1.8 S 7 9 4 5 1028.9 1028.9 0.0
21/09:30pm 15.5 14.6 12.6 83 1.6 SSW 9 11 5 6 1028.8 1028.8 0.0
21/09:00pm 16.0 15.0 12.2 78 2.1 SSW 9 13 5 7 1028.7 1028.7 0.0
21/08:30pm 17.2 13.9 12.7 75 2.5 SSE 22 28 12 15 1028.6 1028.6 0.0
21/08:00pm 17.3 15.6 12.4 73 2.7 SSE 13 20 7 11 1028.2 1028.2 0.0
21/07:30pm 17.7 14.7 12.6 72 2.8 SSE 20 28 11 15 1027.9 1027.9 0.0
21/07:00pm 18.0 15.0 12.7 71 2.9 SE 20 28 11 15 1027.5 1027.5 0.0
21/06:30pm 18.7 15.4 12.7 68 3.4 SE 22 30 12 16 1027.3 1027.3 0.0
21/06:00pm 19.5 16.6 13.0 66 3.7 SSE 20 28 11 15 1027.1 1027.1 0.0
21/05:30pm 19.7 14.7 12.2 62 4.2 SE 30 43 16 23 1026.8 1026.8 0.0
21/05:00pm 20.6 15.3 12.6 60 4.5 SSE 32 48 17 26 1026.7 1026.7 0.0
21/04:57pm 20.7 15.8 12.4 59 4.7 SSE 30 48 16 26 1026.7 1026.7 0.0
21/04:30pm 20.8 16.4 13.0 61 4.4 SSE 28 39 15 21 1026.7 1026.7 0.0
21/04:00pm 20.6 15.5 11.8 57 4.9 SSE 30 43 16 23 1026.7 1026.7 0.0
21/03:30pm 21.6 16.5 13.0 58 4.9 S 32 43 17 23 1026.7 1026.7 0.0
21/03:00pm 21.8 16.9 12.6 56 5.2 SE 30 39 16 21 1026.9 1026.9 0.0
21/02:30pm 22.2 17.0 12.7 55 5.4 SSE 32 43 17 23 1027.0 1027.0 0.0
21/02:00pm 23.2 17.4 12.8 52 5.9 S 35 50 19 27 1027.3 1027.3 0.0
21/01:30pm 22.0 17.7 13.1 57 5.1 SSE 28 35 15 19 1027.8 1027.8 0.0
21/01:00pm 22.4 16.9 13.5 57 5.1 SSE 35 44 19 24 1028.1 1028.1 0.0
21/12:30pm 20.4 16.5 14.5 69 3.4 S 28 39 15 21 1028.7 1028.7 0.0
21/12:00pm 19.3 15.3 14.1 72 3.0 S 28 33 15 18 1028.9 1028.9 0.0
21/11:30am 19.2 13.9 14.2 73 2.9 S 35 43 19 23 1029.0 1029.0 0.0
21/11:00am 21.2 17.6 14.1 64 4.1 S 26 37 14 20 1028.8 1028.8 0.0
21/10:30am 20.6 17.5 14.5 68 3.6 S 24 32 13 17 1029.0 1029.0 0.0
21/10:00am 20.1 16.9 14.2 69 3.4 S 24 32 13 17 1029.0 1029.0 0.0
21/09:30am 20.2 17.2 14.8 71 3.1 S 24 33 13 18 1028.8 1028.8 0.0
21/09:00am 19.4 16.2 14.2 72 3.0 S 24 32 13 17 1028.5 1028.5 1.4
21/08:30am 19.0 17.7 14.9 77 2.4 S 15 20 8 11 1028.2 1028.2 1.4
21/08:00am 18.6 18.0 15.7 83 1.7 S 13 17 7 9 1028.0 1028.0 1.4
21/07:30am 18.2 17.2 15.5 84 1.6 S 15 22 8 12 1027.6 1027.6 1.4
21/07:00am 17.8 16.7 15.4 86 1.4 S 15 19 8 10 1027.6 1027.6 1.4
21/06:30am 17.7 16.3 15.5 87 1.3 S 17 20 9 11 1027.2 1027.2 1.4
21/06:00am 17.3 16.6 15.5 89 1.0 S 13 15 7 8 1026.7 1026.7 1.4
21/05:30am 17.3 16.5 15.1 87 1.3 S 13 17 7 9 1026.4 1026.4 1.4
21/05:00am 17.8 17.1 15.4 86 1.4 S 13 19 7 10 1026.2 1026.2 1.4
21/04:30am 17.7 16.5 16.0 90 1.0 S 17 20 9 11 1026.1 1026.1 1.4
21/04:00am 17.7 16.6 16.4 92 0.8 S 17 19 9 10 1026.1 1026.1 1.4
21/03:30am 17.8 17.1 16.5 92 0.8 S 15 19 8 10 1026.3 1026.3 1.4
21/03:19am 17.8 17.1 16.3 91 0.9 S 15 19 8 10 1026.4 1026.4 1.4
21/03:00am 17.8 17.1 16.5 92 0.8 S 15 20 8 11 1026.4 1026.4 1.4
21/02:30am 17.6 17.7 16.5 93 0.7 S 11 17 6 9 1026.5 1026.5 1.4
21/02:00am 17.4 18.1 16.1 92 0.8 SSW 7 17 4 9 1026.7 1026.7 1.2
21/01:30am 17.7 17.7 16.2 91 0.9 SSW 11 17 6 9 1026.8 1026.8 0.8
21/01:21am 17.7 18.0 16.0 90 1.0 S 9 13 5 7 1026.8 1026.8 0.6
21/01:00am 17.6 17.7 15.6 88 1.2 SW 9 13 5 7 1026.9 1026.9 0.0
21/12:30am 18.3 18.9 15.9 86 1.4 S 7 9 4 5 1027.4 1027.4 0.0
21/12:00am 18.5 19.2 15.6 83 1.7 S 6 11 3 6 1027.5 1027.5 0.0
 
Date/Time
EDT
Temp
°C
App
Temp
°C
Dew
Point
Rel
Hum
%
Delta-T
°C
Wind Press
QNH
hPa
Press
MSL
hPa
Rain
since 9 am
mm
Dir
 
Spd
km/h
Gust
km/h
Spd
kts
Gust
kts
20/11:30pm 19.1 18.3 15.2 78 2.3 S 13 20 7 11 1027.7 1027.7 0.0
20/11:00pm 19.0 18.3 15.3 79 2.2 S 13 19 7 10 1027.8 1027.8 0.0
20/10:30pm 18.9 17.5 14.6 76 2.5 S 15 20 8 11 1027.8 1027.8 0.0
20/10:00pm 20.1 18.0 15.1 73 2.9 S 20 28 11 15 1027.7 1027.7 0.0
20/09:30pm 20.2 18.6 15.0 72 3.1 S 17 24 9 13 1027.6 1027.6 0.0
20/09:00pm 20.2 17.6 15.0 72 3.0 S 22 32 12 17 1027.2 1027.2 0.0
20/08:30pm 19.9 17.5 15.3 75 2.7 S 22 28 12 15 1026.8 1026.8 0.0
20/08:00pm 20.3 17.2 15.5 74 2.8 S 26 35 14 19 1026.3 1026.3 0.0
20/07:30pm 20.7 17.3 15.7 73 3.0 S 28 37 15 20 1025.9 1025.9 0.0
20/07:00pm 20.8 17.8 14.9 69 3.5 SSE 24 30 13 16 1025.5 1025.5 0.0
20/06:30pm 21.2 17.4 13.6 62 4.4 SSE 26 37 14 20 1025.0 1025.0 0.0
20/06:00pm 22.2 17.8 13.0 56 5.2 SSE 28 37 15 20 1024.7 1024.7 0.0
20/05:30pm 23.4 18.0 12.1 49 6.4 S 32 43 17 23 1024.1 1024.1 0.0
20/05:00pm 24.4 18.8 11.4 44 7.3 SSE 32 43 17 23 1023.4 1023.4 0.0
20/04:30pm 25.4 19.6 10.8 40 8.2 SSE 32 46 17 25 1023.0 1023.0 0.0
20/04:00pm 27.2 21.8 10.8 36 9.2 S 30 44 16 24 1022.4 1022.4 0.0
20/03:30pm 27.9 24.9 12.7 39 8.9 SSE 20 28 11 15 1022.1 1022.1 0.0
20/03:00pm 28.4 27.6 13.9 41 8.6 SE 11 17 6 9 1021.9 1021.9 0.0
20/02:30pm 28.8 26.9 14.2 40 8.8 S 17 28 9 15 1022.1 1022.1 0.0
20/02:00pm 27.4 25.5 13.0 41 8.4 SSE 15 20 8 11 1022.4 1022.4 0.0
20/01:30pm 27.5 25.9 11.5 37 9.2 SE 11 20 6 11 1022.6 1022.6 0.0
20/01:00pm 26.8 25.8 12.4 40 8.3 SE 9 22 5 12 1022.9 1022.9 0.0
20/12:30pm 26.3 25.8 12.0 41 8.2 S 6 11 3 6 1023.3 1023.3 0.0
20/12:00pm 25.3 24.8 12.2 44 7.5 NNE 6 11 3 6 1023.7 1023.7 0.0
20/11:30am 24.6 24.1 12.2 46 7.1 E 6 13 3 7 1024.2 1024.2 0.0
20/11:00am 23.4 22.5 11.5 47 6.7 N 7 11 4 6 1024.5 1024.5 0.0
20/10:30am 22.5 21.5 12.2 52 5.8 NE 9 17 5 9 1024.8 1024.8 0.0
20/10:00am 21.6 21.0 12.2 55 5.3 N 7 13 4 7 1025.1 1025.1 0.0
20/09:30am 20.4 20.0 12.9 62 4.3 NNW 7 11 4 6 1025.0 1025.0 0.0
20/09:00am 18.1 17.2 12.5 70 3.1 N 9 13 5 7 1025.3 1025.3 0.0
20/08:30am 16.2 15.1 13.1 82 1.7 N 11 15 6 8 1025.4 1025.4 0.0
20/08:00am 13.7 12.3 12.1 90 0.9 N 11 13 6 7 1025.3 1025.3 0.0
20/07:30am 12.0 10.0 11.5 97 0.3 N 13 15 7 8 1025.1 1025.1 0.0
20/07:00am 10.7 8.4 10.5 99 0.1 N 13 13 7 7 1025.2 1025.2 0.0
20/06:30am 10.0 7.9 9.9 99 0.1 N 11 13 6 7 1024.9 1024.9 0.0
20/06:00am 9.9 7.4 9.8 99 0.0 N 13 15 7 8 1024.7 1024.7 0.0
20/05:30am 9.8 7.3 9.7 99 0.1 N 13 15 7 8 1024.6 1024.6 0.0
20/05:00am 10.1 8.0 9.9 99 0.1 N 11 13 6 7 1024.7 1024.7 0.0
20/04:30am 9.7 7.8 9.1 96 0.3 N 9 11 5 6 1024.7 1024.7 0.0
20/04:00am 10.3 8.6 9.8 97 0.3 N 9 13 5 7 1024.6 1024.6 0.0
20/03:30am 10.7 8.7 10.2 97 0.3 N 11 13 6 7 1024.6 1024.6 0.0
20/03:00am 11.0 9.1 10.4 96 0.3 N 11 13 6 7 1024.9 1024.9 0.0
20/02:30am 11.6 9.5 11.0 96 0.3 N 13 15 7 8 1025.1 1025.1 0.0
20/02:00am 11.0 9.5 10.5 97 0.3 N 9 13 5 7 1025.5 1025.5 0.0
20/01:30am 10.9 9.8 10.6 98 0.2 N 7 9 4 5 1025.8 1025.8 0.0
20/01:00am 10.7 9.4 9.1 90 0.8 N 6 7 3 4 1026.1 1026.1 0.0
20/12:30am 11.8 12.0 10.4 91 0.7 CALM 0 0 0 0 1026.4 1026.4 0.0
20/12:00am 12.6 12.9 11.0 90 0.8 CALM 0 0 0 0 1026.6 1026.6 0.0
 
Date/Time
EDT
Temp
°C
App
Temp
°C
Dew
Point
Rel
Hum
%
Delta-T
°C
Wind Press
QNH
hPa
Press
MSL
hPa
Rain
since 9 am
mm
Dir
 
Spd
km/h
Gust
km/h
Spd
kts
Gust
kts
19/11:30pm 12.4 12.5 10.1 86 1.2 CALM 0 0 0 0 1026.7 1026.7 0.0
19/11:00pm 13.3 13.6 10.8 85 1.3 CALM 0 0 0 0 1026.6 1026.6 0.0
19/10:30pm 13.2 11.9 10.0 81 1.6 N 7 11 4 6 1026.5 1026.5 0.0
19/10:00pm 14.8 13.6 11.6 81 1.7 NNE 9 13 5 7 1026.2 1026.2 0.0
19/09:30pm 14.7 13.2 10.7 77 2.1 N 9 11 5 6 1026.1 1026.1 0.0
19/09:00pm 15.1 14.9 10.5 74 2.4 NNE 2 11 1 6 1025.9 1025.9 0.0
19/08:30pm 17.7 16.1 11.7 68 3.3 ENE 11 15 6 8 1025.6 1025.6 0.0
19/08:00pm 18.5 16.5 11.6 64 3.8 ENE 13 17 7 9 1025.2 1025.2 0.0
19/07:30pm 19.0 16.5 11.1 60 4.3 ENE 15 20 8 11 1024.9 1024.9 0.0
19/07:00pm 19.4 16.6 9.9 54 5.0 ENE 15 24 8 13 1024.6 1024.6 0.0
19/06:30pm 20.4 17.3 9.0 48 6.0 ENE 15 28 8 15 1024.4 1024.4 0.0
19/06:00pm 21.5 17.8 9.4 46 6.4 E 19 28 10 15 1024.1 1024.1 0.0
19/05:30pm 22.3 18.7 9.8 45 6.8 E 19 24 10 13 1023.9 1023.9 0.0
19/05:00pm 22.7 19.5 9.8 44 7.0 ESE 17 22 9 12 1023.8 1023.8 0.0
19/04:30pm 23.5 20.5 10.6 44 7.1 E 17 24 9 13 1023.7 1023.7 0.0
19/04:00pm 23.6 20.6 10.6 44 7.2 ESE 17 24 9 13 1023.7 1023.7 0.0
19/03:30pm 24.0 20.9 11.7 46 6.9 SE 19 22 10 12 1023.9 1023.9 0.0
19/03:00pm 24.2 21.9 11.9 46 6.9 SSE 15 22 8 12 1024.2 1024.2 0.0
19/02:30pm 23.7 21.3 10.0 42 7.5 SE 13 20 7 11 1024.6 1024.6 0.0
19/02:00pm 24.3 23.0 11.3 44 7.3 ESE 9 15 5 8 1025.2 1025.2 0.0
19/01:30pm 24.1 21.5 12.1 47 6.8 SE 17 24 9 13 1025.8 1025.8 0.0
19/01:00pm 24.2 21.8 12.8 49 6.5 SSE 17 26 9 14 1026.4 1026.4 0.0
19/12:30pm 23.3 22.1 11.7 48 6.5 SSE 9 20 5 11 1026.6 1026.6 0.0
19/12:00pm 23.3 21.5 13.2 53 5.8 S 15 20 8 11 1027.0 1027.0 0.0
19/11:30am 21.9 21.1 11.6 52 5.7 ESE 7 17 4 9 1027.4 1027.4 0.0
19/11:00am 23.0 22.1 13.8 56 5.3 SSE 11 15 6 8 1027.9 1027.9 0.0
19/10:30am 21.6 21.3 13.2 59 4.8 E 7 13 4 7 1028.2 1028.2 0.0
19/10:00am 20.5 19.6 12.5 60 4.5 SSW 9 17 5 9 1028.5 1028.5 0.0
19/09:30am 20.4 19.7 13.1 63 4.2 SSW 9 15 5 8 1028.5 1028.5 0.0
19/09:00am 19.2 20.0 14.9 76 2.5 NW 4 7 2 4 1028.4 1028.4 0.0
19/08:30am 17.9 18.5 14.2 79 2.1 NNE 4 7 2 4 1028.3 1028.3 0.0
19/08:00am 16.1 15.9 14.8 92 0.7 NNW 9 13 5 7 1028.1 1028.1 0.0
19/07:30am 14.8 14.4 14.0 95 0.4 N 9 11 5 6 1027.8 1027.8 0.0
19/07:00am 14.6 14.3 14.3 98 0.2 N 9 11 5 6 1027.5 1027.5 0.0
19/06:30am 14.0 13.9 13.8 99 0.1 NNW 7 13 4 7 1027.2 1027.2 0.0
19/06:00am 13.5 12.8 13.3 99 0.1 NNW 9 11 5 6 1027.1 1027.1 0.0
19/05:30am 13.9 13.3 13.6 98 0.2 NNW 9 11 5 6 1026.8 1026.8 0.0
19/05:00am 13.8 13.8 13.5 98 0.2 NW 6 9 3 5 1026.7 1026.7 0.0
19/04:30am 13.5 12.0 13.2 98 0.2 NNW 13 15 7 8 1026.4 1026.4 0.0
19/04:00am 14.1 14.5 13.8 98 0.2 NW 4 6 2 3 1026.3 1026.3 0.0
19/03:30am 14.8 16.0 13.8 94 0.6 CALM 0 0 0 0 1026.5 1026.5 0.0
19/03:00am 14.7 14.2 13.9 95 0.4 N 9 11 5 6 1026.5 1026.5 0.0
19/02:30am 15.0 15.1 14.0 94 0.6 N 6 9 3 5 1026.7 1026.7 0.0
19/02:00am 15.1 15.1 14.3 95 0.5 N 7 9 4 5 1027.0 1027.0 0.0
19/01:30am 15.5 16.8 14.2 92 0.7 CALM 0 0 0 0 1027.1 1027.1 0.0
19/01:00am 15.7 16.4 14.6 93 0.6 SE 4 9 2 5 1027.5 1027.5 0.0
19/12:30am 15.6 16.9 14.0 90 0.9 CALM 0 6 0 3 1027.9 1027.9 0.0
19/12:00am 15.9 17.3 14.3 90 0.9 CALM 0 0 0 0 1028.1 1028.1 0.0
 
Date/Time
EDT
Temp
°C
App
Temp
°C
Dew
Point
Rel
Hum
%
Delta-T
°C
Wind Press
QNH
hPa
Press
MSL
hPa
Rain
since 9 am
mm
Dir
 
Spd
km/h
Gust
km/h
Spd
kts
Gust
kts
18/11:30pm 15.5 16.1 14.2 92 0.7 W 4 13 2 7 1028.2 1028.2 0.0
18/11:00pm 15.6 16.9 14.1 91 0.8 CALM 0 0 0 0 1028.2 1028.2 0.0

Other Formats:

Comma delimited format used in spreadsheet applications
http://www.bom.gov.au/fwo/IDN60801/IDN60801.94572.axf

JavaScript Object Notation format (JSON) in row-major order
http://www.bom.gov.au/fwo/IDN60801/IDN60801.94572.json